Terminal Aerodrome Forecast
Issued by NWS Charleston, WV

Current Version | Previous Version | Text Only | Print | Product List | Glossary Off
Versions: 1 2 3 4 5 6 7 8 9 10 11 12 13 14 15 16 17 18 19 20 21 22 23 24 25 26

000
FTUS41 KRLX 262211 AAA
TAFCRW
TAF AMD
KCRW 262211Z 2622/2718 19007KT P6SM SCT040 BKN080
     FM270000 19006KT 4SM TSRA BR BKN030CB
      TEMPO 2700/2702 24015G25KT 1SM +TSRA BR BKN020CB
     FM270300 19005KT 4SM SHRA BR VCTS SCT001 BKN025CB
     FM271000 VRB03KT 4SM BR SCT001 OVC025
     FM271400 22006KT 6SM BR BKN025
     FM271600 23007KT P6SM VCTS BKN040CB=

USA.gov is the U.S. government's official web portal to all federal, state and local government web resources and services.